createdAt,value
2017-09-26T00:00:12.494Z,13.38
2017-09-26T00:01:12.516Z,13.3
2017-09-26T00:03:12.556Z,13.22
2017-09-26T00:04:12.581Z,13.33
2017-09-26T00:05:12.608Z,13.19
2017-09-26T00:06:12.629Z,13.2
2017-09-26T00:07:12.688Z,13.22
2017-09-26T00:08:27.244Z,13.22
2017-09-26T00:09:12.046Z,13.14
2017-09-26T00:10:12.393Z,13.1
2017-09-26T00:11:12.735Z,13.14
2017-09-26T00:12:12.760Z,12.97
2017-09-26T00:13:12.818Z,13.04
2017-09-26T00:14:12.799Z,13.11
2017-09-26T00:15:12.827Z,13.05
2017-09-26T00:16:12.856Z,13.05
2017-09-26T00:18:12.563Z,13.07
2017-09-26T00:19:12.586Z,13.01
2017-09-26T00:20:12.934Z,13.01
2017-09-26T00:21:12.955Z,13.11
2017-09-26T00:22:12.984Z,13.01
2017-09-26T00:23:12.999Z,13.07
2017-09-26T00:24:13.062Z,13.08
2017-09-26T00:25:13.050Z,13.05
2017-09-26T00:26:13.066Z,13.01
2017-09-26T00:27:13.088Z,13.03
2017-09-26T00:28:13.106Z,13
2017-09-26T00:29:13.134Z,12.93
2017-09-26T00:30:13.154Z,12.93
2017-09-26T00:32:13.194Z,13
2017-09-26T00:33:13.221Z,12.95
2017-09-26T00:34:13.242Z,12.96
2017-09-26T00:35:27.830Z,12.96
2017-09-26T00:36:13.285Z,12.92
2017-09-26T00:37:13.307Z,13.04
2017-09-26T00:38:13.004Z,13.03
2017-09-26T00:39:13.348Z,13.03
2017-09-26T00:40:27.936Z,12.96
2017-09-26T00:41:13.393Z,12.96
2017-09-26T00:42:13.087Z,13.08
2017-09-26T00:43:13.437Z,13.01
2017-09-26T00:44:13.454Z,13.03
2017-09-26T00:45:13.479Z,13.04
2017-09-26T00:46:13.497Z,13.08
2017-09-26T00:47:13.518Z,13.03
2017-09-26T00:51:13.279Z,13
2017-09-26T00:52:13.305Z,12.95
2017-09-26T00:53:13.651Z,12.97
2017-09-26T00:54:13.344Z,13.05
2017-09-26T00:55:13.693Z,12.95
2017-09-26T00:56:28.289Z,12.92
2017-09-26T00:57:13.744Z,12.96
2017-09-26T00:58:13.766Z,12.9
2017-09-26T00:59:13.781Z,12.87
2017-09-26T01:00:13.801Z,12.92
2017-09-26T01:01:13.820Z,12.9
2017-09-26T01:02:13.518Z,12.93
2017-09-26T01:03:13.542Z,12.92
2017-09-26T01:04:13.564Z,12.95
2017-09-26T01:06:13.934Z,13
2017-09-26T01:07:28.525Z,13
2017-09-26T01:08:13.977Z,13.03
2017-09-26T01:09:13.996Z,13.05
2017-09-26T01:10:13.696Z,13.07
2017-09-26T01:12:28.632Z,12.96
2017-09-26T01:13:14.132Z,13.05
2017-09-26T01:14:14.107Z,13.05
2017-09-26T01:15:14.137Z,13.04
2017-09-26T01:16:14.150Z,13.08
2017-09-26T01:17:14.177Z,13.01
2017-09-26T01:18:14.192Z,13.07
2017-09-26T01:19:28.788Z,13.01
2017-09-26T01:20:14.235Z,13.08
2017-09-26T01:21:14.256Z,13.08
2017-09-26T01:22:14.280Z,13.05
2017-09-26T01:23:14.305Z,13.07
2017-09-26T01:24:14.323Z,13.08
2017-09-26T01:25:14.344Z,13.07
2017-09-26T01:26:14.367Z,13.11
2017-09-26T01:27:14.384Z,13.04
2017-09-26T01:28:28.981Z,13.04
2017-09-26T01:29:14.433Z,13.11
2017-09-26T01:30:14.456Z,13.04
2017-09-26T01:31:14.470Z,13.05
2017-09-26T01:32:14.495Z,13
2017-09-26T01:33:14.518Z,13.05
2017-09-26T01:34:14.552Z,13.08
2017-09-26T01:35:14.234Z,13.08
2017-09-26T01:36:14.258Z,13.03
2017-09-26T01:37:14.279Z,13.01
2017-09-26T01:38:14.297Z,13.03
2017-09-26T01:39:14.317Z,13.1
2017-09-26T01:40:14.668Z,13.01
2017-09-26T01:41:14.691Z,13.01
2017-09-26T01:42:14.713Z,13.05
2017-09-26T01:43:28.976Z,13.07
2017-09-26T01:44:14.757Z,13.03
2017-09-26T01:45:14.780Z,13.05
2017-09-26T01:46:14.798Z,13.08
2017-09-26T01:47:14.820Z,13.11
2017-09-26T01:48:14.869Z,13.05
2017-09-26T01:49:14.865Z,13
2017-09-26T01:50:14.557Z,13.03
2017-09-26T01:51:14.582Z,13.04
2017-09-26T01:52:14.632Z,13.19
2017-09-26T01:53:14.624Z,13.11
2017-09-26T01:54:14.650Z,13.01
2017-09-26T01:55:14.670Z,13.15
2017-09-26T01:56:14.686Z,13.07
2017-09-26T01:57:15.034Z,13.17
2017-09-26T01:58:14.732Z,13.14
2017-09-26T01:59:14.755Z,13.1
2017-09-26T02:00:14.776Z,13.12
2017-09-26T02:03:14.839Z,13.17
2017-09-26T02:04:14.860Z,13.19
2017-09-26T02:05:14.884Z,13.17
2017-09-26T02:07:14.600Z,13.22
2017-09-26T02:08:14.997Z,13.15
2017-09-26T02:09:29.865Z,13.17
2017-09-26T02:11:15.338Z,13.26
2017-09-26T02:12:15.363Z,13.22
2017-09-26T02:13:29.949Z,13.25
2017-09-26T02:14:29.968Z,13.25
2017-09-26T02:15:29.994Z,13.26
2017-09-26T02:16:15.120Z,13.22
2017-09-26T02:17:15.467Z,13.15
2017-09-26T02:18:15.488Z,13.2
2017-09-26T02:19:15.183Z,13.32
2017-09-26T02:20:15.206Z,13.38
2017-09-26T02:21:15.554Z,13.3
2017-09-26T02:22:15.572Z,13.33
2017-09-26T02:23:15.597Z,13.42
2017-09-26T02:24:15.614Z,13.25
2017-09-26T02:25:15.313Z,13.3
2017-09-26T02:26:30.228Z,13.33
2017-09-26T02:27:15.688Z,13.3
2017-09-26T02:28:30.272Z,13.38
2017-09-26T02:29:15.733Z,13.42
2017-09-26T02:30:15.750Z,13.41
2017-09-26T02:31:30.333Z,13.52
2017-09-26T02:32:15.795Z,13.49
2017-09-26T02:33:15.812Z,13.46
2017-09-26T02:34:15.832Z,13.42
2017-09-26T02:35:15.531Z,13.45
2017-09-26T02:36:15.876Z,13.51
2017-09-26T02:37:30.471Z,13.48
2017-09-26T02:38:15.922Z,13.54
2017-09-26T02:39:15.940Z,13.57
2017-09-26T02:40:15.963Z,13.52
2017-09-26T02:42:30.575Z,13.44
2017-09-26T02:43:16.024Z,13.51
2017-09-26T02:44:16.055Z,13.48
2017-09-26T02:45:16.069Z,13.51
2017-09-26T02:46:16.097Z,13.54
2017-09-26T02:47:30.681Z,13.48
2017-09-26T02:48:16.146Z,13.55
2017-09-26T02:49:16.171Z,13.57
2017-09-26T02:50:16.191Z,13.55
2017-09-26T02:51:30.440Z,13.57
2017-09-26T02:52:16.224Z,13.54
2017-09-26T02:53:15.914Z,13.54
2017-09-26T02:54:15.944Z,13.49
2017-09-26T02:55:15.961Z,13.59
2017-09-26T02:56:15.981Z,13.44
2017-09-26T02:57:16.340Z,13.64
2017-09-26T02:58:30.919Z,13.6
2017-09-26T02:59:16.046Z,13.59
2017-09-26T03:00:16.079Z,13.6
2017-09-26T03:01:16.092Z,13.55
2017-09-26T03:02:16.434Z,13.63
2017-09-26T03:03:31.029Z,13.57
2017-09-26T03:04:16.481Z,13.55
2017-09-26T03:05:16.173Z,13.66
2017-09-26T03:06:16.533Z,13.6
2017-09-26T03:07:16.215Z,13.64
2017-09-26T03:08:16.240Z,13.52
2017-09-26T03:09:16.263Z,13.57
2017-09-26T03:10:16.611Z,13.62
2017-09-26T03:11:16.634Z,13.59
2017-09-26T03:12:16.655Z,13.64
2017-09-26T03:13:16.349Z,13.52
2017-09-26T03:14:16.696Z,13.55
2017-09-26T03:15:16.399Z,13.62
2017-09-26T03:16:16.414Z,13.59
2017-09-26T03:17:16.768Z,13.6
2017-09-26T03:18:31.350Z,13.59
2017-09-26T03:19:16.478Z,13.62
2017-09-26T03:20:16.499Z,13.62
2017-09-26T03:21:16.520Z,13.66
2017-09-26T03:22:16.871Z,13.62
2017-09-26T03:24:16.584Z,13.63
2017-09-26T03:25:16.942Z,13.64
2017-09-26T03:26:16.955Z,13.67
2017-09-26T03:27:16.973Z,13.69
2017-09-26T03:28:16.721Z,13.66
2017-09-26T03:29:16.695Z,13.6
2017-09-26T03:30:16.747Z,13.59
2017-09-26T03:31:16.738Z,13.66
2017-09-26T03:32:17.088Z,13.66
2017-09-26T03:33:31.675Z,13.62
2017-09-26T03:34:16.804Z,13.64
2017-09-26T03:35:17.151Z,13.71
2017-09-26T03:36:17.200Z,13.67
2017-09-26T03:37:17.190Z,13.67
2017-09-26T03:38:17.217Z,13.71
2017-09-26T03:39:16.910Z,13.66
2017-09-26T03:40:17.264Z,13.69
2017-09-26T03:41:17.312Z,13.71
2017-09-26T03:42:17.305Z,13.73
2017-09-26T03:43:17.325Z,13.75
2017-09-26T03:44:17.346Z,13.79
2017-09-26T03:45:17.369Z,13.75
2017-09-26T03:46:17.383Z,13.89
2017-09-26T03:47:31.979Z,13.91
2017-09-26T03:49:17.124Z,13.77
2017-09-26T03:50:32.041Z,13.77
2017-09-26T03:51:17.171Z,13.81
2017-09-26T03:52:17.516Z,13.81
2017-09-26T03:53:17.542Z,13.79
2017-09-26T03:54:31.804Z,13.77
2017-09-26T03:56:16.958Z,13.7
2017-09-26T03:57:17.300Z,13.79
2017-09-26T03:58:32.223Z,13.85
2017-09-26T03:59:17.017Z,13.87
2017-09-26T04:00:17.366Z,13.84
2017-09-26T04:01:17.391Z,13.91
2017-09-26T04:02:17.736Z,13.89
2017-09-26T04:04:32.346Z,13.77
2017-09-26T04:05:17.475Z,13.78
2017-09-26T04:06:32.063Z,13.78
2017-09-26T04:07:17.849Z,13.88
2017-09-26T04:08:17.213Z,13.85
2017-09-26T04:09:32.129Z,13.84
2017-09-26T04:10:17.584Z,13.95
2017-09-26T04:12:17.298Z,13.92
2017-09-26T04:13:17.649Z,13.95
2017-09-26T04:15:17.688Z,13.92
2017-09-26T04:17:32.629Z,13.89
2017-09-26T04:18:17.755Z,13.92
2017-09-26T04:19:18.105Z,13.87
2017-09-26T04:20:18.128Z,13.89
2017-09-26T04:21:17.820Z,13.92
2017-09-26T04:22:32.740Z,13.87
2017-09-26T04:23:18.187Z,13.89
2017-09-26T04:24:17.890Z,13.88
2017-09-26T04:25:18.236Z,13.91
2017-09-26T04:26:17.930Z,13.99
2017-09-26T04:27:18.276Z,13.89
2017-09-26T04:28:17.973Z,13.89
2017-09-26T04:29:18.323Z,13.87
2017-09-26T04:30:18.016Z,13.92
2017-09-26T04:32:17.783Z,13.99
2017-09-26T04:33:32.976Z,13.97
2017-09-26T04:34:18.429Z,13.89
2017-09-26T04:35:33.020Z,13.89
2017-09-26T04:36:18.147Z,13.92
2017-09-26T04:37:18.496Z,13.92
2017-09-26T04:38:33.081Z,13.92
2017-09-26T04:39:18.537Z,13.95
2017-09-26T04:40:32.802Z,13.87
2017-09-26T04:41:18.582Z,13.95
2017-09-26T04:42:17.950Z,13.89
2017-09-26T04:43:18.624Z,13.88
2017-09-26T04:44:18.654Z,13.92
2017-09-26T04:45:18.341Z,13.91
2017-09-26T04:46:18.692Z,13.89
2017-09-26T04:47:18.386Z,14
2017-09-26T04:48:18.735Z,13.88
2017-09-26T04:49:18.756Z,13.92
2017-09-26T04:50:18.777Z,14.02
2017-09-26T04:51:18.472Z,13.96
2017-09-26T04:53:33.411Z,13.96
2017-09-26T04:55:18.890Z,13.96
2017-09-26T04:56:18.256Z,13.99
2017-09-26T04:57:18.927Z,14
2017-09-26T04:58:18.952Z,14.03
2017-09-26T04:59:18.972Z,13.97
2017-09-26T05:00:18.990Z,13.95
2017-09-26T05:02:19.038Z,14
2017-09-26T05:03:18.681Z,14.04
2017-09-26T05:04:19.017Z,14.04
2017-09-26T05:05:18.729Z,13.95
2017-09-26T05:06:19.061Z,13.95
2017-09-26T05:07:19.085Z,13.96
2017-09-26T05:08:19.114Z,14.03
2017-09-26T05:09:19.129Z,14.02
2017-09-26T05:10:18.833Z,14.06
2017-09-26T05:11:33.445Z,14.03
2017-09-26T05:14:18.600Z,14.04
2017-09-26T05:16:19.299Z,14.02
2017-09-26T05:17:19.304Z,14.02
2017-09-26T05:18:19.327Z,14.02
2017-09-26T05:19:19.349Z,14.06
2017-09-26T05:20:19.051Z,14.09
2017-09-26T05:21:19.390Z,14.02
2017-09-26T05:22:19.410Z,14.09
2017-09-26T05:23:19.454Z,14.1
2017-09-26T05:24:19.454Z,14.1
2017-09-26T05:25:33.751Z,14.07
2017-09-26T05:26:18.861Z,14.09
2017-09-26T05:28:34.183Z,14.12
2017-09-26T05:29:34.156Z,14.09
2017-09-26T05:30:19.581Z,14.09
2017-09-26T05:31:19.287Z,14.18
2017-09-26T05:32:19.314Z,14.03
2017-09-26T05:33:19.654Z,14.07
2017-09-26T05:34:19.673Z,14.2
2017-09-26T05:35:19.693Z,14.09
2017-09-26T05:36:19.395Z,14.17
2017-09-26T05:37:19.737Z,14.09
2017-09-26T05:38:19.437Z,14.27
2017-09-26T05:39:19.789Z,14.22
2017-09-26T05:40:19.488Z,14.17
2017-09-26T05:41:34.094Z,14.15
2017-09-26T05:42:19.849Z,14.29
2017-09-26T05:43:19.547Z,14.33
2017-09-26T05:44:19.890Z,14.36
2017-09-26T05:45:19.592Z,14.35
2017-09-26T05:46:19.613Z,14.27
2017-09-26T05:47:19.636Z,14.32
2017-09-26T05:48:34.570Z,14.22
2017-09-26T05:49:19.683Z,14.27
2017-09-26T05:50:20.021Z,14.35
2017-09-26T05:51:20.040Z,14.35
2017-09-26T05:52:20.066Z,14.35
2017-09-26T05:53:19.767Z,14.32
2017-09-26T05:54:20.109Z,14.33
2017-09-26T05:55:19.813Z,14.33
2017-09-26T05:56:19.832Z,14.43
2017-09-26T05:57:34.765Z,14.32
2017-09-26T05:58:20.193Z,14.37
2017-09-26T05:59:34.809Z,14.35
2017-09-26T06:00:20.242Z,14.36
2017-09-26T06:01:19.941Z,14.33
2017-09-26T06:02:19.966Z,14.36
2017-09-26T06:03:20.308Z,14.32
2017-09-26T06:04:20.006Z,14.27
2017-09-26T06:05:20.031Z,14.33
2017-09-26T06:06:20.051Z,14.35
2017-09-26T06:07:20.072Z,14.35
2017-09-26T06:08:20.093Z,14.36
2017-09-26T06:09:20.116Z,14.37
2017-09-26T06:10:20.139Z,14.37
2017-09-26T06:11:20.478Z,14.57
2017-09-26T06:12:20.180Z,14.51
2017-09-26T06:13:35.116Z,14.5
2017-09-26T06:14:20.225Z,14.52
2017-09-26T06:15:20.253Z,14.52
2017-09-26T06:16:19.952Z,14.55
2017-09-26T06:17:19.972Z,14.55
2017-09-26T06:18:20.314Z,14.6
2017-09-26T06:19:20.659Z,14.62
2017-09-26T06:20:20.051Z,14.61
2017-09-26T06:22:20.403Z,14.62
2017-09-26T06:23:20.743Z,14.61
2017-09-26T06:24:20.445Z,14.69
2017-09-26T06:25:20.472Z,14.61
2017-09-26T06:26:20.489Z,14.6
2017-09-26T06:27:20.192Z,14.64
2017-09-26T06:28:35.445Z,14.69
2017-09-26T06:29:20.877Z,14.69
2017-09-26T06:30:20.892Z,14.58
2017-09-26T06:31:35.510Z,14.61
2017-09-26T06:32:20.940Z,14.64
2017-09-26T06:33:20.963Z,14.68
2017-09-26T06:34:20.986Z,14.68
2017-09-26T06:36:21.033Z,14.75
2017-09-26T06:38:20.756Z,14.73
2017-09-26T06:39:20.781Z,14.77
2017-09-26T06:40:20.799Z,14.77
2017-09-26T06:41:21.138Z,14.73
2017-09-26T06:42:20.521Z,14.75
2017-09-26T06:44:21.206Z,14.84
2017-09-26T06:45:20.908Z,14.92
2017-09-26T06:46:21.248Z,14.88
2017-09-26T06:47:20.634Z,14.95
2017-09-26T06:48:20.977Z,15.02
2017-09-26T06:49:21.367Z,14.99
2017-09-26T06:50:21.341Z,15.02
2017-09-26T06:51:20.721Z,14.92
2017-09-26T06:52:21.061Z,14.92
2017-09-26T06:54:21.427Z,15.02
2017-09-26T06:55:21.460Z,14.95
2017-09-26T06:56:21.476Z,15.1
2017-09-26T06:57:21.506Z,15.13
2017-09-26T06:58:21.519Z,15.1
2017-09-26T06:59:21.540Z,15.09
2017-09-26T07:00:36.149Z,15.07
2017-09-26T07:01:21.577Z,15.1
2017-09-26T07:02:21.606Z,15.21
2017-09-26T07:03:36.219Z,15.19
2017-09-26T07:04:21.647Z,15.09
2017-09-26T07:06:21.691Z,15.21
2017-09-26T07:08:21.737Z,15.25
2017-09-26T07:09:21.758Z,15.13
2017-09-26T07:10:21.780Z,15.27
2017-09-26T07:11:21.485Z,15.19
2017-09-26T07:12:21.832Z,15.28
2017-09-26T07:13:21.848Z,15.31
2017-09-26T07:14:21.872Z,15.35
2017-09-26T07:15:21.889Z,15.49
2017-09-26T07:16:36.505Z,15.53
2017-09-26T07:17:21.942Z,15.47
2017-09-26T07:18:21.641Z,15.56
2017-09-26T07:19:21.662Z,15.6
2017-09-26T07:21:22.027Z,15.64
2017-09-26T07:22:22.048Z,15.53
2017-09-26T07:24:21.777Z,15.56
2017-09-26T07:25:21.798Z,15.6
2017-09-26T07:26:22.138Z,15.69
2017-09-26T07:27:22.165Z,15.67
2017-09-26T07:28:21.864Z,15.72
2017-09-26T07:29:21.888Z,15.71
2017-09-26T07:30:21.909Z,15.57
2017-09-26T07:31:22.250Z,15.59
2017-09-26T07:33:22.298Z,15.54
2017-09-26T07:34:22.328Z,15.62
2017-09-26T07:35:22.341Z,15.74
2017-09-26T07:36:22.365Z,15.59
2017-09-26T07:37:22.414Z,15.54
2017-09-26T07:38:22.102Z,15.57
2017-09-26T07:39:22.115Z,15.56
2017-09-26T07:40:22.456Z,15.62
2017-09-26T07:41:22.479Z,15.69
2017-09-26T07:42:22.498Z,15.65
2017-09-26T07:43:22.523Z,15.71
2017-09-26T07:44:22.544Z,15.83
2017-09-26T07:45:22.567Z,15.64
2017-09-26T07:46:22.268Z,15.69
2017-09-26T07:47:22.613Z,15.8
2017-09-26T07:48:37.224Z,15.8
2017-09-26T07:49:22.656Z,15.9
2017-09-26T07:50:22.681Z,15.89
2017-09-26T07:51:22.384Z,15.87
2017-09-26T07:53:22.750Z,15.86
2017-09-26T07:55:22.473Z,15.93
2017-09-26T07:56:22.813Z,16.09
2017-09-26T07:57:22.838Z,16.14
2017-09-26T07:58:22.862Z,16.27
2017-09-26T07:59:22.562Z,16.27
2017-09-26T08:00:22.908Z,16.28
2017-09-26T08:01:22.930Z,16.34
2017-09-26T08:02:22.952Z,16.34
2017-09-26T08:03:37.567Z,16.27
2017-09-26T08:04:23.006Z,16.38
2017-09-26T08:05:23.020Z,16.45
2017-09-26T08:06:37.636Z,16.39
2017-09-26T08:07:23.069Z,16.39
2017-09-26T08:08:23.089Z,16.53
2017-09-26T08:09:23.160Z,16.58
2017-09-26T08:10:22.817Z,16.61
2017-09-26T08:11:22.838Z,16.6
2017-09-26T08:12:22.862Z,16.66
2017-09-26T08:13:23.203Z,16.78
2017-09-26T08:14:23.241Z,16.82
2017-09-26T08:15:23.251Z,16.93
2017-09-26T08:16:22.955Z,16.82
2017-09-26T08:17:23.295Z,16.91
2017-09-26T08:18:23.006Z,16.86
2017-09-26T08:19:23.343Z,16.75
2017-09-26T08:20:23.045Z,16.73
2017-09-26T08:21:23.388Z,16.78
2017-09-26T08:22:23.410Z,16.82
2017-09-26T08:23:23.430Z,16.86
2017-09-26T08:25:23.161Z,17.12
2017-09-26T08:26:23.511Z,17.25
2017-09-26T08:27:23.525Z,17.26
2017-09-26T08:29:23.571Z,17.26
2017-09-26T08:30:23.604Z,17.33
2017-09-26T08:31:23.299Z,17.43
2017-09-26T08:32:23.639Z,17.28
2017-09-26T08:33:23.668Z,17.28
2017-09-26T08:34:23.687Z,17.41
2017-09-26T08:35:38.305Z,17.52
2017-09-26T08:36:23.420Z,17.41
2017-09-26T08:37:38.351Z,17.56
2017-09-26T08:38:38.376Z,17.56
2017-09-26T08:39:23.806Z,17.52
2017-09-26T08:40:23.829Z,17.62
2017-09-26T08:41:23.540Z,17.63
2017-09-26T08:42:23.876Z,17.64
2017-09-26T08:43:23.582Z,17.54
2017-09-26T08:44:23.608Z,17.51
2017-09-26T08:45:23.631Z,17.55
2017-09-26T08:46:23.971Z,17.58
2017-09-26T08:47:23.674Z,17.64
2017-09-26T08:48:24.018Z,17.52
2017-09-26T08:49:23.721Z,17.68
2017-09-26T08:50:24.066Z,17.68
2017-09-26T08:51:38.361Z,17.66
2017-09-26T08:52:23.793Z,17.66
2017-09-26T08:53:24.132Z,17.59
2017-09-26T08:54:23.839Z,17.41
2017-09-26T08:55:24.182Z,17.34
2017-09-26T08:56:23.885Z,17.33
2017-09-26T08:57:23.914Z,17.22
2017-09-26T08:58:23.614Z,17.31
2017-09-26T08:59:23.640Z,17.3
2017-09-26T09:00:23.979Z,17.23
2017-09-26T09:01:24.322Z,17.25
2017-09-26T09:02:24.351Z,17.41
2017-09-26T09:03:24.368Z,17.23
2017-09-26T09:04:24.395Z,17.3
2017-09-26T09:05:24.102Z,17.34
2017-09-26T09:06:24.119Z,17.25
2017-09-26T09:07:39.053Z,17.26
2017-09-26T09:08:23.847Z,17.28
2017-09-26T09:09:24.510Z,17.28
2017-09-26T09:10:24.534Z,17.28
2017-09-26T09:11:23.919Z,17.26
2017-09-26T09:12:24.579Z,17.28
2017-09-26T09:13:24.604Z,17.28
2017-09-26T09:15:24.646Z,17.16
2017-09-26T09:16:24.675Z,17.23
2017-09-26T09:17:24.699Z,17.25
2017-09-26T09:18:24.718Z,17.25
2017-09-26T09:19:24.743Z,17.28
2017-09-26T09:20:24.762Z,17.28
2017-09-26T09:21:24.790Z,17.3
2017-09-26T09:22:24.930Z,17.43
2017-09-26T09:23:39.429Z,17.4
2017-09-26T09:24:24.538Z,17.52
2017-09-26T09:25:24.883Z,17.48
2017-09-26T09:26:24.907Z,17.36
2017-09-26T09:28:24.951Z,17.38
2017-09-26T09:29:24.673Z,17.48
2017-09-26T09:30:25.001Z,17.54
2017-09-26T09:31:24.705Z,17.59
2017-09-26T09:32:25.047Z,17.74
2017-09-26T09:33:25.075Z,17.86
2017-09-26T09:34:25.091Z,17.92
2017-09-26T09:35:25.124Z,17.92
2017-09-26T09:36:25.141Z,18.12
2017-09-26T09:37:24.845Z,18.27
2017-09-26T09:38:39.781Z,18.48
2017-09-26T09:39:25.212Z,18.65
2017-09-26T09:40:24.915Z,18.84
2017-09-26T09:41:24.938Z,19.11
2017-09-26T09:42:25.316Z,19.18
2017-09-26T09:44:25.330Z,19.23
2017-09-26T09:46:25.381Z,19.21
2017-09-26T09:47:25.410Z,19.13
2017-09-26T09:48:25.110Z,19.25
2017-09-26T09:49:25.134Z,19.21
2017-09-26T09:50:25.473Z,19.32
2017-09-26T09:51:25.497Z,19.33
2017-09-26T09:52:25.565Z,19.23
2017-09-26T09:53:25.548Z,19.32
2017-09-26T09:54:25.253Z,19.19
2017-09-26T09:55:25.596Z,19.14
2017-09-26T09:56:40.211Z,19.1
2017-09-26T09:57:25.333Z,18.87
2017-09-26T09:58:25.671Z,18.98
2017-09-26T09:59:25.369Z,19.04
2017-09-26T10:00:25.714Z,19.02
2017-09-26T10:01:25.426Z,19.07
2017-09-26T10:02:25.762Z,18.81
2017-09-26T10:03:25.786Z,18.73
2017-09-26T10:04:25.494Z,18.69
2017-09-26T10:05:25.835Z,18.76
2017-09-26T10:06:25.862Z,18.73
2017-09-26T10:07:25.566Z,18.6
2017-09-26T10:08:25.908Z,18.57
2017-09-26T10:09:25.932Z,18.58
2017-09-26T10:10:40.229Z,18.63
2017-09-26T10:11:25.663Z,18.58
2017-09-26T10:12:26.005Z,18.55
2017-09-26T10:13:26.029Z,18.7
2017-09-26T10:14:40.679Z,18.66
2017-09-26T10:15:26.075Z,18.62
2017-09-26T10:17:25.806Z,18.85
2017-09-26T10:18:26.152Z,18.85
2017-09-26T10:19:26.175Z,18.9
2017-09-26T10:20:25.877Z,18.85
2017-09-26T10:21:25.904Z,18.81
2017-09-26T10:22:25.977Z,18.94
2017-09-26T10:23:26.270Z,18.84
2017-09-26T10:24:26.290Z,19.07
2017-09-26T10:25:26.318Z,19.22
2017-09-26T10:26:40.614Z,19.37
2017-09-26T10:27:26.046Z,19.33
2017-09-26T10:28:26.389Z,19.39
2017-09-26T10:29:26.096Z,19.59
2017-09-26T10:30:26.118Z,19.61
2017-09-26T10:31:26.463Z,19.94
2017-09-26T10:33:25.872Z,20.13
2017-09-26T10:34:26.536Z,19.99
2017-09-26T10:35:25.923Z,20.02
2017-09-26T10:36:25.945Z,20.03
2017-09-26T10:37:26.617Z,19.86
2017-09-26T10:38:26.315Z,19.66
2017-09-26T10:39:26.339Z,19.55
2017-09-26T10:40:26.363Z,19.51
2017-09-26T10:41:41.303Z,19.5
2017-09-26T10:42:41.323Z,19.58
2017-09-26T10:43:26.437Z,19.41
2017-09-26T10:44:26.463Z,19.21
2017-09-26T10:45:41.394Z,19.19
2017-09-26T10:46:26.830Z,19.14
2017-09-26T10:47:26.848Z,19.14
2017-09-26T10:50:26.609Z,19.14
2017-09-26T10:51:26.951Z,19.19
2017-09-26T10:52:26.976Z,19.19
2017-09-26T10:53:26.995Z,19.21
2017-09-26T10:54:27.024Z,19.31
2017-09-26T10:55:27.047Z,19.21
2017-09-26T10:56:27.078Z,19.21
2017-09-26T10:57:26.778Z,19.33
2017-09-26T10:58:41.710Z,19.43
2017-09-26T10:59:27.145Z,19.61
2017-09-26T11:00:41.444Z,19.56
2017-09-26T11:01:26.873Z,19.56
2017-09-26T11:03:27.240Z,19.37
2017-09-26T11:04:27.267Z,19.28
2017-09-26T11:05:27.291Z,19.21
2017-09-26T11:06:27.317Z,19.13
2017-09-26T11:08:27.400Z,19.28
2017-09-26T11:09:27.067Z,19.31
2017-09-26T11:10:27.411Z,19.19
2017-09-26T11:11:27.436Z,19.16
2017-09-26T11:12:27.144Z,19.04
2017-09-26T11:13:42.077Z,19.04
2017-09-26T11:14:27.190Z,19.08
2017-09-26T11:15:27.533Z,19.21
2017-09-26T11:16:27.564Z,19.23
2017-09-26T11:17:27.584Z,19.16
2017-09-26T11:18:27.609Z,19.28
2017-09-26T11:19:27.630Z,19.41
2017-09-26T11:20:27.659Z,19.56
2017-09-26T11:21:27.688Z,19.47
2017-09-26T11:22:27.386Z,19.48
2017-09-26T11:23:27.725Z,19.59
2017-09-26T11:24:27.755Z,19.65
2017-09-26T11:25:27.787Z,19.73
2017-09-26T11:26:27.807Z,19.61
2017-09-26T11:27:27.506Z,19.56
2017-09-26T11:28:27.852Z,19.61
2017-09-26T11:29:27.883Z,19.63
2017-09-26T11:30:27.579Z,19.32
2017-09-26T11:31:27.606Z,19.41
2017-09-26T11:32:27.952Z,19.68
2017-09-26T11:33:27.979Z,19.69
2017-09-26T11:35:27.702Z,19.8
2017-09-26T11:36:28.045Z,19.99
2017-09-26T11:37:28.075Z,19.92
2017-09-26T11:38:28.097Z,19.83
2017-09-26T11:39:28.123Z,19.71
2017-09-26T11:40:28.141Z,19.74
2017-09-26T11:41:27.848Z,19.76
2017-09-26T11:42:27.879Z,19.65
2017-09-26T11:43:42.813Z,19.46
2017-09-26T11:44:28.238Z,19.29
2017-09-26T11:46:28.295Z,19.23
2017-09-26T11:47:28.312Z,19.19
2017-09-26T11:48:28.339Z,19.18
2017-09-26T11:49:42.954Z,19.18
2017-09-26T11:50:28.393Z,19.25
2017-09-26T11:51:28.410Z,19.31
2017-09-26T11:52:28.119Z,19.29
2017-09-26T11:53:28.468Z,19.21
2017-09-26T11:54:28.490Z,19.29
2017-09-26T11:55:28.189Z,19.33
2017-09-26T11:56:28.532Z,19.39
2017-09-26T11:57:28.235Z,19.46
2017-09-26T11:58:28.263Z,19.51
2017-09-26T11:59:28.606Z,19.51
2017-09-26T12:00:28.626Z,19.54
2017-09-26T12:01:43.246Z,19.59
2017-09-26T12:02:28.682Z,19.48
2017-09-26T12:03:28.384Z,19.36
2017-09-26T12:04:28.728Z,19.46
2017-09-26T12:05:28.751Z,19.39
2017-09-26T12:06:28.773Z,19.55
2017-09-26T12:07:28.798Z,19.62
2017-09-26T12:09:28.851Z,19.71
2017-09-26T12:10:28.552Z,19.77
2017-09-26T12:11:28.579Z,19.88
2017-09-26T12:12:28.918Z,19.91
2017-09-26T12:13:28.947Z,19.86
2017-09-26T12:14:28.973Z,19.87
2017-09-26T12:15:28.674Z,19.86
2017-09-26T12:16:29.018Z,19.86
2017-09-26T12:17:43.635Z,19.98
2017-09-26T12:18:28.747Z,19.84
2017-09-26T12:19:29.092Z,19.71
2017-09-26T12:20:29.116Z,19.62
2017-09-26T12:21:43.733Z,19.69
2017-09-26T12:22:43.758Z,19.66
2017-09-26T12:23:28.875Z,19.61
2017-09-26T12:24:28.898Z,19.8
2017-09-26T12:25:28.923Z,19.73
2017-09-26T12:26:28.626Z,19.68
2017-09-26T12:27:29.290Z,19.92
2017-09-26T12:28:29.313Z,19.91
2017-09-26T12:29:29.017Z,19.99
2017-09-26T12:30:29.043Z,20.08
2017-09-26T12:31:29.066Z,20.13
2017-09-26T12:32:29.092Z,20.08
2017-09-26T12:33:44.038Z,20.28
2017-09-26T12:34:29.459Z,20.41
2017-09-26T12:35:29.486Z,20.51
2017-09-26T12:36:29.511Z,20.57
2017-09-26T12:38:29.556Z,20.67
2017-09-26T12:40:29.609Z,20.66
2017-09-26T12:41:29.316Z,20.72
2017-09-26T12:42:29.657Z,20.8
2017-09-26T12:43:29.683Z,20.94
2017-09-26T12:44:29.072Z,21.04
2017-09-26T12:45:29.730Z,20.97
2017-09-26T12:46:29.763Z,20.88
2017-09-26T12:47:29.784Z,20.88
2017-09-26T12:48:44.081Z,20.77
2017-09-26T12:49:29.832Z,20.69
2017-09-26T12:50:29.857Z,20.82
2017-09-26T12:51:29.885Z,20.62
2017-09-26T12:52:29.915Z,20.5
2017-09-26T12:54:29.954Z,20.73
2017-09-26T12:55:29.984Z,20.64
2017-09-26T12:56:30.012Z,20.61
2017-09-26T12:57:30.034Z,20.73
2017-09-26T12:58:30.077Z,20.52
2017-09-26T12:59:30.084Z,20.61
2017-09-26T13:00:29.792Z,20.64
2017-09-26T13:01:29.814Z,20.55
2017-09-26T13:02:29.838Z,20.55
2017-09-26T13:03:30.185Z,20.57
2017-09-26T13:04:29.888Z,20.47
2017-09-26T13:05:29.914Z,20.55
2017-09-26T13:06:30.021Z,20.67
2017-09-26T13:07:44.874Z,20.67
2017-09-26T13:08:29.988Z,20.66
2017-09-26T13:10:30.354Z,20.72
2017-09-26T13:11:30.390Z,20.69
2017-09-26T13:12:30.090Z,20.84
2017-09-26T13:15:30.483Z,20.58
2017-09-26T13:16:30.187Z,20.59
2017-09-26T13:17:30.535Z,20.47
2017-09-26T13:18:30.583Z,20.47
2017-09-26T13:19:30.581Z,20.41
2017-09-26T13:20:45.198Z,20.47
2017-09-26T13:21:30.313Z,20.42
2017-09-26T13:22:30.655Z,20.21
2017-09-26T13:23:30.683Z,20.21
2017-09-26T13:24:30.389Z,20.13
2017-09-26T13:25:30.735Z,20.21
2017-09-26T13:26:30.442Z,20.14
2017-09-26T13:27:30.461Z,20.16
2017-09-26T13:28:30.805Z,20.13
2017-09-26T13:29:30.194Z,20.13
2017-09-26T13:30:30.535Z,20.13
2017-09-26T13:31:30.243Z,20.17
2017-09-26T13:32:30.905Z,20.01
2017-09-26T13:33:30.928Z,19.96
2017-09-26T13:34:30.950Z,20.03
2017-09-26T13:35:30.981Z,19.96
2017-09-26T13:36:45.277Z,20.01
2017-09-26T13:37:30.712Z,20.02
2017-09-26T13:38:31.054Z,20.03
2017-09-26T13:39:30.761Z,20.05
2017-09-26T13:40:45.692Z,20.11
2017-09-26T13:42:30.835Z,20.08
2017-09-26T13:43:31.175Z,20.05
2017-09-26T13:44:31.203Z,20.06
2017-09-26T13:45:30.905Z,20.14
2017-09-26T13:46:30.928Z,19.88
2017-09-26T13:47:31.271Z,19.76
2017-09-26T13:48:30.979Z,19.74
2017-09-26T13:49:31.322Z,19.74
2017-09-26T13:50:31.343Z,19.59
2017-09-26T13:51:31.102Z,19.71
2017-09-26T13:52:45.985Z,19.51
2017-09-26T13:53:31.102Z,19.32
2017-09-26T13:54:45.718Z,19.13
2017-09-26T13:55:31.151Z,19.14
2017-09-26T13:56:46.084Z,19.16
2017-09-26T13:57:31.522Z,19.16